If you wish to contribute or participate in the discussions about articles you are invited to join SKYbrary as a registered user

 Actions

Le Mans-Arnage Airport

From SKYbrary Wiki

LFRM
Airport
ICAO: LFRM – IATA: LME
Summary
Name Le Mans-Arnage Airport
Region Europe
Territory France FR.gif
Location , Pays de la Loire
Serving Le Mans
Elevation 59.131 m
194 ft
194 ft59.131 m
Type medium airport
Coordinates 47° 56' 55.00" N, 0° 12' 6.00" E
Runways
Designator Length Width Surface ROPS
2/20 1420 m4,658.793 ft
30 m98.425 ft
ASP /


METAR
Observation LFRM 171830Z AUTO 21006KT 170V230 CAVOK 14/12 Q1010 TEMPO BKN020TCU
Station Le Mans
Date/Time 17 October 2019 18:30:00
Wind direction 210°
Wind speed 06 kts
Lowest cloud amount broken clouds
Temperature 14°C
Dew point 12°C
Humidity 87%
QNH 1010 hPa
Weather condition n/a